Minneapolis, Minnesota
Traffic Map
Current Weather Conditions
Minneapolis, Minnesota
Overcast
Overcast
19°
Feels Like: 4°
Wind Chill: Ceiling: 1600
Heat Index: 19° Visibility: 10mi
Dew Point: 14° Wind: 16mph
Humidity: 81% Direction: 350° (N)
Pressure: 29.99in Gusts: 0mph
Raw Report DataKMSP 231353Z 35014KT 10SM OVC016 M07/M10 A2999 RMK AO2 SLP170 T10721100 $
Traffic Incident Summary
Active as of:
Severity:
Category:
InformationThere was an issue retrieving the traffic information for this location. Please try a different location or try again shortly.
Advertisements